sensor_id;sensor_type;location;lat;lon;timestamp;P1;durP1;ratioP1;P2;durP2;ratioP2
68821;SDS011;55834;50.870;4.606;2022-12-11T00:01:16;12.80;;;6.00;;
68821;SDS011;55834;50.870;4.606;2022-12-11T00:03:44;17.55;;;7.72;;
68821;SDS011;55834;50.870;4.606;2022-12-11T00:06:11;14.77;;;6.35;;
68821;SDS011;55834;50.870;4.606;2022-12-11T00:08:38;14.55;;;5.97;;
68821;SDS011;55834;50.870;4.606;2022-12-11T00:11:04;13.18;;;6.30;;
68821;SDS011;55834;50.870;4.606;2022-12-11T00:13:32;17.38;;;7.97;;
68821;SDS011;55834;50.870;4.606;2022-12-11T00:15:57;13.30;;;6.73;;
68821;SDS011;55834;50.870;4.606;2022-12-11T00:18:23;11.77;;;6.38;;
68821;SDS011;55834;50.870;4.606;2022-12-11T00:20:48;9.57;;;5.25;;
68821;SDS011;55834;50.870;4.606;2022-12-11T00:23:14;11.05;;;6.10;;
68821;SDS011;55834;50.870;4.606;2022-12-11T00:25:43;14.57;;;5.43;;
68821;SDS011;55834;50.870;4.606;2022-12-11T00:28:10;15.18;;;6.35;;
68821;SDS011;55834;50.870;4.606;2022-12-11T00:30:43;11.63;;;5.18;;
68821;SDS011;55834;50.870;4.606;2022-12-11T00:33:09;16.58;;;7.97;;
68821;SDS011;55834;50.870;4.606;2022-12-11T00:35:37;18.08;;;7.18;;
68821;SDS011;55834;50.870;4.606;2022-12-11T00:38:06;15.73;;;7.75;;
68821;SDS011;55834;50.870;4.606;2022-12-11T00:40:32;11.73;;;5.40;;
68821;SDS011;55834;50.870;4.606;2022-12-11T00:42:58;15.43;;;6.57;;
68821;SDS011;55834;50.870;4.606;2022-12-11T00:45:24;17.57;;;7.47;;
68821;SDS011;55834;50.870;4.606;2022-12-11T00:47:49;14.60;;;7.30;;
68821;SDS011;55834;50.870;4.606;2022-12-11T00:50:14;14.33;;;6.57;;
68821;SDS011;55834;50.870;4.606;2022-12-11T00:52:40;12.00;;;6.27;;
68821;SDS011;55834;50.870;4.606;2022-12-11T00:55:05;15.53;;;6.07;;
68821;SDS011;55834;50.870;4.606;2022-12-11T00:57:31;15.15;;;6.93;;
68821;SDS011;55834;50.870;4.606;2022-12-11T00:59:56;14.73;;;6.10;;
68821;SDS011;55834;50.870;4.606;2022-12-11T01:02:21;13.73;;;6.50;;
68821;SDS011;55834;50.870;4.606;2022-12-11T01:04:47;17.67;;;8.00;;
68821;SDS011;55834;50.870;4.606;2022-12-11T01:07:12;16.90;;;7.47;;
68821;SDS011;55834;50.870;4.606;2022-12-11T01:09:37;14.33;;;7.40;;
68821;SDS011;55834;50.870;4.606;2022-12-11T01:12:21;15.32;;;6.68;;
68821;SDS011;55834;50.870;4.606;2022-12-11T01:14:46;14.00;;;7.03;;
68821;SDS011;55834;50.870;4.606;2022-12-11T01:17:11;15.87;;;7.73;;
68821;SDS011;55834;50.870;4.606;2022-12-11T01:19:37;16.90;;;8.03;;
68821;SDS011;55834;50.870;4.606;2022-12-11T01:22:02;13.70;;;7.03;;
68821;SDS011;55834;50.870;4.606;2022-12-11T01:24:27;16.90;;;7.03;;
68821;SDS011;55834;50.870;4.606;2022-12-11T01:26:53;17.40;;;6.80;;
68821;SDS011;55834;50.870;4.606;2022-12-11T01:29:18;16.87;;;7.50;;
68821;SDS011;55834;50.870;4.606;2022-12-11T01:31:43;19.37;;;6.90;;
68821;SDS011;55834;50.870;4.606;2022-12-11T01:34:09;16.10;;;8.60;;
68821;SDS011;55834;50.870;4.606;2022-12-11T01:36:34;16.90;;;6.83;;
68821;SDS011;55834;50.870;4.606;2022-12-11T01:38:59;18.00;;;7.73;;
68821;SDS011;55834;50.870;4.606;2022-12-11T01:41:25;18.00;;;8.07;;
68821;SDS011;55834;50.870;4.606;2022-12-11T01:46:25;19.98;;;9.35;;
68821;SDS011;55834;50.870;4.606;2022-12-11T01:48:51;19.65;;;9.13;;
68821;SDS011;55834;50.870;4.606;2022-12-11T01:51:17;19.33;;;8.75;;
68821;SDS011;55834;50.870;4.606;2022-12-11T01:53:44;18.43;;;7.60;;
68821;SDS011;55834;50.870;4.606;2022-12-11T01:56:14;17.33;;;7.88;;
68821;SDS011;55834;50.870;4.606;2022-12-11T01:58:45;20.80;;;9.05;;
68821;SDS011;55834;50.870;4.606;2022-12-11T02:01:26;20.77;;;7.57;;
68821;SDS011;55834;50.870;4.606;2022-12-11T02:03:57;17.88;;;7.43;;
68821;SDS011;55834;50.870;4.606;2022-12-11T02:06:43;17.77;;;7.78;;
68821;SDS011;55834;50.870;4.606;2022-12-11T02:09:11;23.52;;;9.05;;
68821;SDS011;55834;50.870;4.606;2022-12-11T02:11:42;19.02;;;9.75;;
68821;SDS011;55834;50.870;4.606;2022-12-11T02:14:22;22.70;;;9.18;;
68821;SDS011;55834;50.870;4.606;2022-12-11T02:16:54;20.55;;;8.93;;
68821;SDS011;55834;50.870;4.606;2022-12-11T02:22:13;17.85;;;7.20;;
68821;SDS011;55834;50.870;4.606;2022-12-11T02:24:56;19.45;;;8.38;;
68821;SDS011;55834;50.870;4.606;2022-12-11T02:27:43;25.52;;;8.63;;
68821;SDS011;55834;50.870;4.606;2022-12-11T02:30:14;21.15;;;9.15;;
68821;SDS011;55834;50.870;4.606;2022-12-11T02:35:19;18.15;;;8.65;;
68821;SDS011;55834;50.870;4.606;2022-12-11T02:37:50;20.67;;;9.68;;
68821;SDS011;55834;50.870;4.606;2022-12-11T02:40:21;23.20;;;9.40;;
68821;SDS011;55834;50.870;4.606;2022-12-11T02:42:50;16.75;;;8.10;;
68821;SDS011;55834;50.870;4.606;2022-12-11T02:47:46;23.63;;;9.95;;
68821;SDS011;55834;50.870;4.606;2022-12-11T02:52:41;17.67;;;7.60;;
68821;SDS011;55834;50.870;4.606;2022-12-11T02:55:07;24.80;;;9.05;;
68821;SDS011;55834;50.870;4.606;2022-12-11T02:57:37;21.75;;;8.80;;
68821;SDS011;55834;50.870;4.606;2022-12-11T03:00:07;19.67;;;8.90;;
68821;SDS011;55834;50.870;4.606;2022-12-11T03:02:33;19.77;;;8.25;;
68821;SDS011;55834;50.870;4.606;2022-12-11T03:04:58;17.30;;;8.18;;
68821;SDS011;55834;50.870;4.606;2022-12-11T03:07:25;21.13;;;8.87;;
68821;SDS011;55834;50.870;4.606;2022-12-11T03:09:52;21.90;;;8.95;;
68821;SDS011;55834;50.870;4.606;2022-12-11T03:12:19;21.13;;;10.43;;
68821;SDS011;55834;50.870;4.606;2022-12-11T03:14:48;20.60;;;7.53;;
68821;SDS011;55834;50.870;4.606;2022-12-11T03:17:15;21.17;;;10.02;;
68821;SDS011;55834;50.870;4.606;2022-12-11T03:19:46;20.25;;;7.82;;
68821;SDS011;55834;50.870;4.606;2022-12-11T03:22:30;20.52;;;8.52;;
68821;SDS011;55834;50.870;4.606;2022-12-11T03:25:03;22.90;;;9.88;;
68821;SDS011;55834;50.870;4.606;2022-12-11T03:27:41;19.83;;;8.15;;
68821;SDS011;55834;50.870;4.606;2022-12-11T03:30:13;21.05;;;9.38;;
68821;SDS011;55834;50.870;4.606;2022-12-11T03:35:30;20.73;;;8.52;;
68821;SDS011;55834;50.870;4.606;2022-12-11T03:38:00;18.77;;;7.97;;
68821;SDS011;55834;50.870;4.606;2022-12-11T03:40:32;20.58;;;9.25;;
68821;SDS011;55834;50.870;4.606;2022-12-11T03:42:59;18.65;;;8.23;;
68821;SDS011;55834;50.870;4.606;2022-12-11T03:45:25;22.27;;;9.05;;
68821;SDS011;55834;50.870;4.606;2022-12-11T03:47:53;20.35;;;9.65;;
68821;SDS011;55834;50.870;4.606;2022-12-11T03:50:22;18.67;;;7.93;;
68821;SDS011;55834;50.870;4.606;2022-12-11T03:52:48;19.42;;;7.93;;
68821;SDS011;55834;50.870;4.606;2022-12-11T03:55:15;19.20;;;7.85;;
68821;SDS011;55834;50.870;4.606;2022-12-11T03:57:43;20.42;;;8.77;;
68821;SDS011;55834;50.870;4.606;2022-12-11T04:00:10;19.92;;;8.65;;
68821;SDS011;55834;50.870;4.606;2022-12-11T04:02:38;23.42;;;8.68;;
68821;SDS011;55834;50.870;4.606;2022-12-11T04:05:04;20.85;;;9.70;;
68821;SDS011;55834;50.870;4.606;2022-12-11T04:07:30;17.65;;;7.70;;
68821;SDS011;55834;50.870;4.606;2022-12-11T04:09:56;18.97;;;9.83;;
68821;SDS011;55834;50.870;4.606;2022-12-11T04:12:21;19.87;;;7.70;;
68821;SDS011;55834;50.870;4.606;2022-12-11T04:14:46;23.50;;;10.40;;
68821;SDS011;55834;50.870;4.606;2022-12-11T04:17:31;18.13;;;7.40;;
68821;SDS011;55834;50.870;4.606;2022-12-11T04:20:17;20.40;;;7.22;;
68821;SDS011;55834;50.870;4.606;2022-12-11T04:23:12;23.52;;;10.75;;
68821;SDS011;55834;50.870;4.606;2022-12-11T04:26:07;15.50;;;7.10;;
68821;SDS011;55834;50.870;4.606;2022-12-11T04:28:32;20.70;;;7.47;;
68821;SDS011;55834;50.870;4.606;2022-12-11T04:30:59;24.35;;;10.20;;
68821;SDS011;55834;50.870;4.606;2022-12-11T04:33:24;19.35;;;8.95;;
68821;SDS011;55834;50.870;4.606;2022-12-11T04:35:50;20.40;;;9.30;;
68821;SDS011;55834;50.870;4.606;2022-12-11T04:38:15;26.43;;;8.67;;
68821;SDS011;55834;50.870;4.606;2022-12-11T04:40:40;19.63;;;10.47;;
68821;SDS011;55834;50.870;4.606;2022-12-11T04:43:06;21.30;;;9.03;;
68821;SDS011;55834;50.870;4.606;2022-12-11T04:45:31;24.67;;;9.53;;
68821;SDS011;55834;50.870;4.606;2022-12-11T04:47:56;20.13;;;8.13;;
68821;SDS011;55834;50.870;4.606;2022-12-11T04:50:22;17.37;;;8.30;;
68821;SDS011;55834;50.870;4.606;2022-12-11T04:52:47;24.20;;;9.20;;
68821;SDS011;55834;50.870;4.606;2022-12-11T04:55:12;23.13;;;9.07;;
68821;SDS011;55834;50.870;4.606;2022-12-11T04:57:38;22.00;;;8.65;;
68821;SDS011;55834;50.870;4.606;2022-12-11T05:00:07;19.65;;;7.97;;
68821;SDS011;55834;50.870;4.606;2022-12-11T05:02:36;19.30;;;8.00;;
68821;SDS011;55834;50.870;4.606;2022-12-11T05:05:05;20.60;;;8.52;;
68821;SDS011;55834;50.870;4.606;2022-12-11T05:07:33;25.52;;;9.85;;
68821;SDS011;55834;50.870;4.606;2022-12-11T05:09:59;27.88;;;9.77;;
68821;SDS011;55834;50.870;4.606;2022-12-11T05:12:24;18.97;;;8.07;;
68821;SDS011;55834;50.870;4.606;2022-12-11T05:14:52;19.23;;;7.87;;
68821;SDS011;55834;50.870;4.606;2022-12-11T05:17:18;20.92;;;8.13;;
68821;SDS011;55834;50.870;4.606;2022-12-11T05:19:49;26.05;;;8.43;;
68821;SDS011;55834;50.870;4.606;2022-12-11T05:22:15;22.33;;;10.20;;
68821;SDS011;55834;50.870;4.606;2022-12-11T05:24:42;23.00;;;9.15;;
68821;SDS011;55834;50.870;4.606;2022-12-11T05:27:08;21.38;;;7.65;;
68821;SDS011;55834;50.870;4.606;2022-12-11T05:29:35;24.67;;;8.48;;
68821;SDS011;55834;50.870;4.606;2022-12-11T05:32:00;21.25;;;9.35;;
68821;SDS011;55834;50.870;4.606;2022-12-11T05:34:25;20.03;;;8.20;;
68821;SDS011;55834;50.870;4.606;2022-12-11T05:36:51;23.37;;;11.90;;
68821;SDS011;55834;50.870;4.606;2022-12-11T05:39:16;25.70;;;9.57;;
68821;SDS011;55834;50.870;4.606;2022-12-11T05:41:41;23.80;;;9.23;;
68821;SDS011;55834;50.870;4.606;2022-12-11T05:44:09;29.60;;;12.27;;
68821;SDS011;55834;50.870;4.606;2022-12-11T05:46:36;24.05;;;12.77;;
68821;SDS011;55834;50.870;4.606;2022-12-11T05:49:01;33.80;;;15.13;;
68821;SDS011;55834;50.870;4.606;2022-12-11T05:51:27;28.65;;;12.45;;
68821;SDS011;55834;50.870;4.606;2022-12-11T05:53:54;27.52;;;13.32;;
68821;SDS011;55834;50.870;4.606;2022-12-11T05:56:22;24.17;;;10.82;;
68821;SDS011;55834;50.870;4.606;2022-12-11T05:58:50;23.35;;;9.30;;
68821;SDS011;55834;50.870;4.606;2022-12-11T06:01:20;22.73;;;9.35;;
68821;SDS011;55834;50.870;4.606;2022-12-11T06:03:48;23.42;;;10.48;;
68821;SDS011;55834;50.870;4.606;2022-12-11T06:06:13;22.63;;;9.97;;
68821;SDS011;55834;50.870;4.606;2022-12-11T06:08:39;23.60;;;8.15;;
68821;SDS011;55834;50.870;4.606;2022-12-11T06:11:07;26.00;;;10.18;;
68821;SDS011;55834;50.870;4.606;2022-12-11T06:13:33;23.30;;;10.10;;
68821;SDS011;55834;50.870;4.606;2022-12-11T06:16:02;24.17;;;9.57;;
68821;SDS011;55834;50.870;4.606;2022-12-11T06:18:30;21.23;;;8.32;;
68821;SDS011;55834;50.870;4.606;2022-12-11T06:20:56;22.10;;;8.93;;
68821;SDS011;55834;50.870;4.606;2022-12-11T06:23:22;24.02;;;9.23;;
68821;SDS011;55834;50.870;4.606;2022-12-11T06:25:47;21.80;;;10.15;;
68821;SDS011;55834;50.870;4.606;2022-12-11T06:28:13;25.00;;;10.07;;
68821;SDS011;55834;50.870;4.606;2022-12-11T06:30:38;25.37;;;10.27;;
68821;SDS011;55834;50.870;4.606;2022-12-11T06:33:04;20.67;;;10.13;;
68821;SDS011;55834;50.870;4.606;2022-12-11T06:35:29;25.60;;;8.48;;
68821;SDS011;55834;50.870;4.606;2022-12-11T06:37:54;22.33;;;8.80;;
68821;SDS011;55834;50.870;4.606;2022-12-11T06:40:20;23.65;;;9.45;;
68821;SDS011;55834;50.870;4.606;2022-12-11T06:42:46;26.58;;;9.77;;
68821;SDS011;55834;50.870;4.606;2022-12-11T06:45:11;26.67;;;10.53;;
68821;SDS011;55834;50.870;4.606;2022-12-11T06:47:36;19.93;;;9.37;;
68821;SDS011;55834;50.870;4.606;2022-12-11T06:50:02;24.87;;;9.80;;
68821;SDS011;55834;50.870;4.606;2022-12-11T06:52:27;25.08;;;10.30;;
68821;SDS011;55834;50.870;4.606;2022-12-11T06:54:53;22.47;;;9.27;;
68821;SDS011;55834;50.870;4.606;2022-12-11T06:57:19;30.55;;;11.00;;
68821;SDS011;55834;50.870;4.606;2022-12-11T06:59:44;30.05;;;11.82;;
68821;SDS011;55834;50.870;4.606;2022-12-11T07:02:13;28.40;;;12.60;;
68821;SDS011;55834;50.870;4.606;2022-12-11T07:04:40;26.58;;;10.00;;
68821;SDS011;55834;50.870;4.606;2022-12-11T07:07:06;24.10;;;10.32;;
68821;SDS011;55834;50.870;4.606;2022-12-11T07:09:32;24.50;;;10.82;;
68821;SDS011;55834;50.870;4.606;2022-12-11T07:11:58;19.48;;;9.35;;
68821;SDS011;55834;50.870;4.606;2022-12-11T07:14:23;25.20;;;10.95;;
68821;SDS011;55834;50.870;4.606;2022-12-11T07:16:49;22.77;;;10.57;;
68821;SDS011;55834;50.870;4.606;2022-12-11T07:19:14;25.87;;;11.77;;
68821;SDS011;55834;50.870;4.606;2022-12-11T07:21:39;23.33;;;10.07;;
68821;SDS011;55834;50.870;4.606;2022-12-11T07:24:05;23.27;;;9.87;;
68821;SDS011;55834;50.870;4.606;2022-12-11T07:26:31;28.67;;;11.85;;
68821;SDS011;55834;50.870;4.606;2022-12-11T07:28:56;27.73;;;9.73;;
68821;SDS011;55834;50.870;4.606;2022-12-11T07:31:23;24.88;;;9.90;;
68821;SDS011;55834;50.870;4.606;2022-12-11T07:33:53;25.10;;;8.50;;
68821;SDS011;55834;50.870;4.606;2022-12-11T07:36:20;23.42;;;11.13;;
68821;SDS011;55834;50.870;4.606;2022-12-11T07:38:46;29.50;;;12.38;;
68821;SDS011;55834;50.870;4.606;2022-12-11T07:41:12;28.85;;;9.95;;
68821;SDS011;55834;50.870;4.606;2022-12-11T07:43:38;23.60;;;10.48;;
68821;SDS011;55834;50.870;4.606;2022-12-11T07:46:10;23.13;;;10.05;;
68821;SDS011;55834;50.870;4.606;2022-12-11T07:48:40;26.05;;;10.27;;
68821;SDS011;55834;50.870;4.606;2022-12-11T07:53:35;24.17;;;11.02;;
68821;SDS011;55834;50.870;4.606;2022-12-11T07:56:01;30.80;;;11.55;;
68821;SDS011;55834;50.870;4.606;2022-12-11T07:58:27;25.33;;;11.73;;
68821;SDS011;55834;50.870;4.606;2022-12-11T08:00:54;28.58;;;12.02;;
68821;SDS011;55834;50.870;4.606;2022-12-11T08:03:20;33.17;;;11.93;;
68821;SDS011;55834;50.870;4.606;2022-12-11T08:05:48;34.57;;;14.50;;
68821;SDS011;55834;50.870;4.606;2022-12-11T08:08:15;23.98;;;10.98;;
68821;SDS011;55834;50.870;4.606;2022-12-11T08:10:41;29.45;;;11.52;;
68821;SDS011;55834;50.870;4.606;2022-12-11T08:13:06;27.77;;;12.87;;
68821;SDS011;55834;50.870;4.606;2022-12-11T08:15:31;29.40;;;13.00;;
68821;SDS011;55834;50.870;4.606;2022-12-11T08:17:57;26.42;;;9.48;;
68821;SDS011;55834;50.870;4.606;2022-12-11T08:20:23;28.80;;;11.65;;
68821;SDS011;55834;50.870;4.606;2022-12-11T08:22:48;26.42;;;11.75;;
68821;SDS011;55834;50.870;4.606;2022-12-11T08:25:14;26.40;;;11.20;;
68821;SDS011;55834;50.870;4.606;2022-12-11T08:27:39;28.10;;;11.27;;
68821;SDS011;55834;50.870;4.606;2022-12-11T08:30:04;24.65;;;9.90;;
68821;SDS011;55834;50.870;4.606;2022-12-11T08:32:30;26.70;;;11.38;;
68821;SDS011;55834;50.870;4.606;2022-12-11T08:34:56;30.13;;;13.33;;
68821;SDS011;55834;50.870;4.606;2022-12-11T08:37:21;37.57;;;14.03;;
68821;SDS011;55834;50.870;4.606;2022-12-11T08:39:46;41.40;;;15.07;;
68821;SDS011;55834;50.870;4.606;2022-12-11T08:42:12;24.77;;;10.47;;
68821;SDS011;55834;50.870;4.606;2022-12-11T08:44:37;27.30;;;10.70;;
68821;SDS011;55834;50.870;4.606;2022-12-11T08:47:02;34.50;;;12.10;;
68821;SDS011;55834;50.870;4.606;2022-12-11T08:49:29;28.00;;;11.52;;
68821;SDS011;55834;50.870;4.606;2022-12-11T08:51:54;27.83;;;10.43;;
68821;SDS011;55834;50.870;4.606;2022-12-11T08:54:19;27.20;;;11.30;;
68821;SDS011;55834;50.870;4.606;2022-12-11T08:56:45;26.07;;;10.07;;
68821;SDS011;55834;50.870;4.606;2022-12-11T08:59:10;23.50;;;9.17;;
68821;SDS011;55834;50.870;4.606;2022-12-11T09:01:35;25.53;;;10.43;;
68821;SDS011;55834;50.870;4.606;2022-12-11T09:04:01;44.63;;;20.20;;
68821;SDS011;55834;50.870;4.606;2022-12-11T09:06:27;28.37;;;12.30;;
68821;SDS011;55834;50.870;4.606;2022-12-11T09:08:54;38.75;;;16.73;;
68821;SDS011;55834;50.870;4.606;2022-12-11T09:11:24;31.67;;;14.23;;
68821;SDS011;55834;50.870;4.606;2022-12-11T09:13:52;23.48;;;9.98;;
68821;SDS011;55834;50.870;4.606;2022-12-11T09:16:18;22.48;;;9.75;;
68821;SDS011;55834;50.870;4.606;2022-12-11T09:18:46;23.95;;;10.10;;
68821;SDS011;55834;50.870;4.606;2022-12-11T09:21:16;32.08;;;12.27;;
68821;SDS011;55834;50.870;4.606;2022-12-11T09:23:44;39.83;;;15.30;;
68821;SDS011;55834;50.870;4.606;2022-12-11T09:26:11;42.63;;;16.70;;
68821;SDS011;55834;50.870;4.606;2022-12-11T09:28:39;28.10;;;11.40;;
68821;SDS011;55834;50.870;4.606;2022-12-11T09:31:08;36.65;;;17.58;;
68821;SDS011;55834;50.870;4.606;2022-12-11T09:36:04;26.33;;;10.35;;
68821;SDS011;55834;50.870;4.606;2022-12-11T09:38:30;23.75;;;10.77;;
68821;SDS011;55834;50.870;4.606;2022-12-11T09:40:56;24.85;;;10.43;;
68821;SDS011;55834;50.870;4.606;2022-12-11T09:43:39;17.63;;;9.00;;
68821;SDS011;55834;50.870;4.606;2022-12-11T09:46:11;18.02;;;9.23;;
68821;SDS011;55834;50.870;4.606;2022-12-11T09:48:39;18.15;;;8.05;;
68821;SDS011;55834;50.870;4.606;2022-12-11T09:51:30;20.98;;;7.57;;
68821;SDS011;55834;50.870;4.606;2022-12-11T09:53:53;17.52;;;9.10;;
68821;SDS011;55834;50.870;4.606;2022-12-11T10:01:21;20.55;;;9.20;;
68821;SDS011;55834;50.870;4.606;2022-12-11T10:09:47;21.45;;;8.90;;
68821;SDS011;55834;50.870;4.606;2022-12-11T10:17:31;18.13;;;8.67;;
68821;SDS011;55834;50.870;4.606;2022-12-11T10:20:04;17.42;;;7.35;;
68821;SDS011;55834;50.870;4.606;2022-12-11T10:22:41;17.65;;;8.57;;
68821;SDS011;55834;50.870;4.606;2022-12-11T10:25:13;24.42;;;10.02;;
68821;SDS011;55834;50.870;4.606;2022-12-11T10:27:44;22.23;;;9.35;;
68821;SDS011;55834;50.870;4.606;2022-12-11T10:30:43;18.73;;;8.40;;
68821;SDS011;55834;50.870;4.606;2022-12-11T10:33:19;22.58;;;9.25;;
68821;SDS011;55834;50.870;4.606;2022-12-11T10:38:35;25.27;;;10.27;;
68821;SDS011;55834;50.870;4.606;2022-12-11T10:41:05;21.50;;;8.80;;
68821;SDS011;55834;50.870;4.606;2022-12-11T10:43:37;22.27;;;9.23;;
68821;SDS011;55834;50.870;4.606;2022-12-11T10:46:11;26.00;;;9.05;;
68821;SDS011;55834;50.870;4.606;2022-12-11T10:48:59;21.65;;;8.55;;
68821;SDS011;55834;50.870;4.606;2022-12-11T10:53:59;21.55;;;10.77;;
68821;SDS011;55834;50.870;4.606;2022-12-11T10:56:30;22.35;;;10.55;;
68821;SDS011;55834;50.870;4.606;2022-12-11T10:58:57;26.95;;;9.63;;
68821;SDS011;55834;50.870;4.606;2022-12-11T11:01:28;24.92;;;8.82;;
68821;SDS011;55834;50.870;4.606;2022-12-11T11:06:21;47.33;;;15.97;;
68821;SDS011;55834;50.870;4.606;2022-12-11T11:08:49;50.03;;;15.05;;
68821;SDS011;55834;50.870;4.606;2022-12-11T11:11:26;33.58;;;13.30;;
68821;SDS011;55834;50.870;4.606;2022-12-11T11:14:16;35.65;;;13.82;;
68821;SDS011;55834;50.870;4.606;2022-12-11T11:16:41;44.22;;;13.85;;
68821;SDS011;55834;50.870;4.606;2022-12-11T11:19:30;48.00;;;15.13;;
68821;SDS011;55834;50.870;4.606;2022-12-11T11:21:57;31.88;;;10.43;;
68821;SDS011;55834;50.870;4.606;2022-12-11T11:24:32;34.88;;;13.93;;
68821;SDS011;55834;50.870;4.606;2022-12-11T11:27:01;37.38;;;13.52;;
68821;SDS011;55834;50.870;4.606;2022-12-11T11:29:35;42.40;;;14.80;;
68821;SDS011;55834;50.870;4.606;2022-12-11T11:32:23;28.35;;;10.13;;
68821;SDS011;55834;50.870;4.606;2022-12-11T11:35:04;26.48;;;10.98;;
68821;SDS011;55834;50.870;4.606;2022-12-11T11:37:36;40.47;;;14.55;;
68821;SDS011;55834;50.870;4.606;2022-12-11T11:40:09;38.75;;;11.63;;
68821;SDS011;55834;50.870;4.606;2022-12-11T11:42:40;23.98;;;8.93;;
68821;SDS011;55834;50.870;4.606;2022-12-11T11:45:13;23.48;;;9.57;;
68821;SDS011;55834;50.870;4.606;2022-12-11T11:47:47;24.27;;;7.40;;
68821;SDS011;55834;50.870;4.606;2022-12-11T11:50:25;22.92;;;8.10;;
68821;SDS011;55834;50.870;4.606;2022-12-11T11:52:59;26.70;;;9.45;;
68821;SDS011;55834;50.870;4.606;2022-12-11T11:58:24;22.70;;;9.57;;
68821;SDS011;55834;50.870;4.606;2022-12-11T12:00:53;20.85;;;6.82;;
68821;SDS011;55834;50.870;4.606;2022-12-11T12:03:19;21.90;;;8.52;;
68821;SDS011;55834;50.870;4.606;2022-12-11T12:05:54;29.20;;;10.13;;
68821;SDS011;55834;50.870;4.606;2022-12-11T12:08:32;21.42;;;7.40;;
68821;SDS011;55834;50.870;4.606;2022-12-11T12:25:28;21.85;;;8.95;;
68821;SDS011;55834;50.870;4.606;2022-12-11T12:28:18;20.20;;;7.55;;
68821;SDS011;55834;50.870;4.606;2022-12-11T12:31:12;29.30;;;9.63;;
68821;SDS011;55834;50.870;4.606;2022-12-11T12:36:16;23.73;;;9.05;;
68821;SDS011;55834;50.870;4.606;2022-12-11T12:38:54;18.58;;;7.35;;
68821;SDS011;55834;50.870;4.606;2022-12-11T12:41:39;17.67;;;7.43;;
68821;SDS011;55834;50.870;4.606;2022-12-11T12:44:17;17.45;;;7.85;;
68821;SDS011;55834;50.870;4.606;2022-12-11T12:47:04;22.40;;;10.00;;
68821;SDS011;55834;50.870;4.606;2022-12-11T12:49:43;19.77;;;7.13;;
68821;SDS011;55834;50.870;4.606;2022-12-11T12:54:45;45.97;;;15.68;;
68821;SDS011;55834;50.870;4.606;2022-12-11T12:57:32;24.65;;;8.52;;
68821;SDS011;55834;50.870;4.606;2022-12-11T13:00:01;21.58;;;9.27;;
68821;SDS011;55834;50.870;4.606;2022-12-11T13:02:28;31.25;;;11.23;;
68821;SDS011;55834;50.870;4.606;2022-12-11T13:04:55;29.77;;;9.80;;
68821;SDS011;55834;50.870;4.606;2022-12-11T13:07:27;30.13;;;9.02;;
68821;SDS011;55834;50.870;4.606;2022-12-11T13:10:06;41.88;;;13.35;;
68821;SDS011;55834;50.870;4.606;2022-12-11T13:12:47;38.35;;;12.82;;
68821;SDS011;55834;50.870;4.606;2022-12-11T13:15:23;24.92;;;7.60;;
68821;SDS011;55834;50.870;4.606;2022-12-11T13:17:51;22.13;;;8.43;;
68821;SDS011;55834;50.870;4.606;2022-12-11T13:20:18;22.60;;;8.75;;
68821;SDS011;55834;50.870;4.606;2022-12-11T13:22:47;22.33;;;8.52;;
68821;SDS011;55834;50.870;4.606;2022-12-11T13:25:31;34.05;;;13.45;;
68821;SDS011;55834;50.870;4.606;2022-12-11T13:31:02;46.67;;;16.70;;
68821;SDS011;55834;50.870;4.606;2022-12-11T13:33:28;39.70;;;13.63;;
68821;SDS011;55834;50.870;4.606;2022-12-11T13:36:20;39.30;;;14.70;;
68821;SDS011;55834;50.870;4.606;2022-12-11T13:39:00;33.13;;;13.85;;
68821;SDS011;55834;50.870;4.606;2022-12-11T13:41:26;40.58;;;14.50;;
68821;SDS011;55834;50.870;4.606;2022-12-11T13:43:54;44.35;;;15.43;;
68821;SDS011;55834;50.870;4.606;2022-12-11T13:48:51;50.05;;;15.98;;
68821;SDS011;55834;50.870;4.606;2022-12-11T13:51:22;33.53;;;13.90;;
68821;SDS011;55834;50.870;4.606;2022-12-11T13:54:00;36.55;;;13.93;;
68821;SDS011;55834;50.870;4.606;2022-12-11T13:56:27;38.25;;;14.68;;
68821;SDS011;55834;50.870;4.606;2022-12-11T13:58:53;34.40;;;13.97;;
68821;SDS011;55834;50.870;4.606;2022-12-11T14:01:31;28.83;;;10.73;;
68821;SDS011;55834;50.870;4.606;2022-12-11T14:04:04;32.95;;;12.82;;
68821;SDS011;55834;50.870;4.606;2022-12-11T14:06:33;28.40;;;12.15;;
68821;SDS011;55834;50.870;4.606;2022-12-11T14:09:00;31.45;;;13.18;;
68821;SDS011;55834;50.870;4.606;2022-12-11T14:11:32;55.30;;;18.67;;
68821;SDS011;55834;50.870;4.606;2022-12-11T14:14:00;28.48;;;10.95;;
68821;SDS011;55834;50.870;4.606;2022-12-11T14:16:28;29.10;;;11.80;;
68821;SDS011;55834;50.870;4.606;2022-12-11T14:18:56;29.98;;;11.48;;
68821;SDS011;55834;50.870;4.606;2022-12-11T14:21:27;20.83;;;10.02;;
68821;SDS011;55834;50.870;4.606;2022-12-11T14:23:54;22.83;;;10.37;;
68821;SDS011;55834;50.870;4.606;2022-12-11T14:26:22;35.22;;;10.27;;
68821;SDS011;55834;50.870;4.606;2022-12-11T14:28:52;30.48;;;12.10;;
68821;SDS011;55834;50.870;4.606;2022-12-11T14:31:24;34.65;;;13.23;;
68821;SDS011;55834;50.870;4.606;2022-12-11T14:34:06;30.90;;;11.70;;
68821;SDS011;55834;50.870;4.606;2022-12-11T14:36:32;41.88;;;15.18;;
68821;SDS011;55834;50.870;4.606;2022-12-11T14:41:49;41.05;;;16.83;;
68821;SDS011;55834;50.870;4.606;2022-12-11T14:44:17;37.35;;;13.80;;
68821;SDS011;55834;50.870;4.606;2022-12-11T14:46:51;31.30;;;14.18;;
68821;SDS011;55834;50.870;4.606;2022-12-11T14:52:44;26.00;;;13.48;;
68821;SDS011;55834;50.870;4.606;2022-12-11T14:55:16;26.27;;;13.75;;
68821;SDS011;55834;50.870;4.606;2022-12-11T14:57:46;43.33;;;22.63;;
68821;SDS011;55834;50.870;4.606;2022-12-11T15:00:31;31.58;;;15.27;;
68821;SDS011;55834;50.870;4.606;2022-12-11T15:03:04;35.03;;;16.48;;
68821;SDS011;55834;50.870;4.606;2022-12-11T15:05:32;23.05;;;13.40;;
68821;SDS011;55834;50.870;4.606;2022-12-11T15:10:39;18.65;;;9.25;;
68821;SDS011;55834;50.870;4.606;2022-12-11T15:13:21;22.08;;;9.57;;
68821;SDS011;55834;50.870;4.606;2022-12-11T15:15:47;18.25;;;9.35;;
68821;SDS011;55834;50.870;4.606;2022-12-11T15:18:18;25.75;;;10.70;;
68821;SDS011;55834;50.870;4.606;2022-12-11T15:20:53;30.33;;;13.85;;
68821;SDS011;55834;50.870;4.606;2022-12-11T15:23:37;27.77;;;12.57;;
68821;SDS011;55834;50.870;4.606;2022-12-11T15:26:15;32.92;;;15.35;;
68821;SDS011;55834;50.870;4.606;2022-12-11T15:28:41;37.15;;;18.52;;
68821;SDS011;55834;50.870;4.606;2022-12-11T15:31:20;35.77;;;14.90;;
68821;SDS011;55834;50.870;4.606;2022-12-11T15:33:47;37.72;;;16.25;;
68821;SDS011;55834;50.870;4.606;2022-12-11T15:38:54;37.60;;;15.10;;
68821;SDS011;55834;50.870;4.606;2022-12-11T15:41:19;41.10;;;18.03;;
68821;SDS011;55834;50.870;4.606;2022-12-11T15:43:45;32.83;;;12.52;;
68821;SDS011;55834;50.870;4.606;2022-12-11T15:46:11;42.15;;;18.30;;
68821;SDS011;55834;50.870;4.606;2022-12-11T15:48:37;51.83;;;20.70;;
68821;SDS011;55834;50.870;4.606;2022-12-11T15:51:03;50.20;;;19.50;;
68821;SDS011;55834;50.870;4.606;2022-12-11T15:53:28;28.17;;;13.00;;
68821;SDS011;55834;50.870;4.606;2022-12-11T15:55:54;27.00;;;13.40;;
68821;SDS011;55834;50.870;4.606;2022-12-11T15:58:21;25.58;;;10.38;;
68821;SDS011;55834;50.870;4.606;2022-12-11T16:00:48;20.73;;;8.82;;
68821;SDS011;55834;50.870;4.606;2022-12-11T16:03:16;19.23;;;10.73;;
68821;SDS011;55834;50.870;4.606;2022-12-11T16:05:43;16.38;;;7.13;;